sensor_id;sensor_type;location;lat;lon;timestamp;noise_LAeq;noise_LA_min;noise_LA_max;noise_LA01;noise_LA95
77729;Laerm;68312;53.502;10.030;2023-04-24T00:00:38;49.36;44.04;54.97;;
77729;Laerm;68312;53.502;10.030;2023-04-24T00:03:04;49.61;44.32;56.62;;
77729;Laerm;68312;53.502;10.030;2023-04-24T00:05:29;48.25;44.45;55.49;;
77729;Laerm;68312;53.502;10.030;2023-04-24T00:07:55;47.14;42.72;55.66;;
77729;Laerm;68312;53.502;10.030;2023-04-24T00:10:20;47.61;41.58;58.49;;
77729;Laerm;68312;53.502;10.030;2023-04-24T00:12:46;48.11;43.09;56.27;;
77729;Laerm;68312;53.502;10.030;2023-04-24T00:15:12;48.22;43.43;54.08;;
77729;Laerm;68312;53.502;10.030;2023-04-24T00:17:38;49.44;45.78;54.95;;
77729;Laerm;68312;53.502;10.030;2023-04-24T00:20:06;47.66;43.76;52.61;;
77729;Laerm;68312;53.502;10.030;2023-04-24T00:22:31;49.74;44.27;54.72;;
77729;Laerm;68312;53.502;10.030;2023-04-24T00:24:57;49.82;45.25;54.48;;
77729;Laerm;68312;53.502;10.030;2023-04-24T00:27:23;48.08;41.48;53.40;;
77729;Laerm;68312;53.502;10.030;2023-04-24T00:29:48;47.47;42.62;55.13;;
77729;Laerm;68312;53.502;10.030;2023-04-24T00:32:14;49.00;43.70;53.87;;
77729;Laerm;68312;53.502;10.030;2023-04-24T00:34:41;48.40;42.02;55.00;;
77729;Laerm;68312;53.502;10.030;2023-04-24T00:37:07;49.11;43.59;54.66;;
77729;Laerm;68312;53.502;10.030;2023-04-24T00:39:32;49.62;44.64;56.72;;
77729;Laerm;68312;53.502;10.030;2023-04-24T00:41:58;48.26;44.46;53.43;;
77729;Laerm;68312;53.502;10.030;2023-04-24T00:44:23;47.90;41.33;54.73;;
77729;Laerm;68312;53.502;10.030;2023-04-24T00:46:49;48.92;44.30;57.68;;
77729;Laerm;68312;53.502;10.030;2023-04-24T00:49:15;49.56;44.80;54.87;;
77729;Laerm;68312;53.502;10.030;2023-04-24T00:51:41;50.16;44.76;59.34;;
77729;Laerm;68312;53.502;10.030;2023-04-24T00:54:06;48.61;44.08;57.17;;
77729;Laerm;68312;53.502;10.030;2023-04-24T00:56:32;49.60;43.85;57.62;;
77729;Laerm;68312;53.502;10.030;2023-04-24T00:58:58;49.34;44.53;54.99;;
77729;Laerm;68312;53.502;10.030;2023-04-24T01:01:24;48.11;43.60;56.03;;
77729;Laerm;68312;53.502;10.030;2023-04-24T01:03:52;50.08;45.42;55.00;;
77729;Laerm;68312;53.502;10.030;2023-04-24T01:06:19;50.12;44.34;55.73;;
77729;Laerm;68312;53.502;10.030;2023-04-24T01:08:47;47.36;41.93;55.64;;
77729;Laerm;68312;53.502;10.030;2023-04-24T01:11:14;50.96;46.61;58.00;;
77729;Laerm;68312;53.502;10.030;2023-04-24T01:13:40;47.84;42.38;55.30;;
77729;Laerm;68312;53.502;10.030;2023-04-24T01:16:05;49.32;44.04;53.38;;
77729;Laerm;68312;53.502;10.030;2023-04-24T01:18:31;47.96;43.57;53.19;;
77729;Laerm;68312;53.502;10.030;2023-04-24T01:21:04;49.23;45.36;54.59;;
77729;Laerm;68312;53.502;10.030;2023-04-24T01:23:29;49.06;45.27;56.56;;
77729;Laerm;68312;53.502;10.030;2023-04-24T01:25:55;48.51;43.90;54.33;;
77729;Laerm;68312;53.502;10.030;2023-04-24T01:28:22;50.71;45.90;56.97;;
77729;Laerm;68312;53.502;10.030;2023-04-24T01:30:48;49.32;45.69;54.54;;
77729;Laerm;68312;53.502;10.030;2023-04-24T01:33:14;46.41;41.18;53.50;;
77729;Laerm;68312;53.502;10.030;2023-04-24T01:35:40;48.75;43.68;55.15;;
77729;Laerm;68312;53.502;10.030;2023-04-24T01:38:05;47.94;44.10;54.38;;
77729;Laerm;68312;53.502;10.030;2023-04-24T01:40:32;48.30;43.56;55.01;;
77729;Laerm;68312;53.502;10.030;2023-04-24T01:42:58;49.84;45.35;57.00;;
77729;Laerm;68312;53.502;10.030;2023-04-24T01:45:24;50.34;44.99;60.44;;
77729;Laerm;68312;53.502;10.030;2023-04-24T01:47:50;49.63;44.91;54.67;;
77729;Laerm;68312;53.502;10.030;2023-04-24T01:50:17;50.06;45.22;56.72;;
77729;Laerm;68312;53.502;10.030;2023-04-24T01:52:43;49.64;44.08;60.09;;
77729;Laerm;68312;53.502;10.030;2023-04-24T01:55:09;49.89;45.46;59.96;;
77729;Laerm;68312;53.502;10.030;2023-04-24T01:57:36;48.62;44.04;53.16;;
77729;Laerm;68312;53.502;10.030;2023-04-24T02:00:06;50.13;44.05;59.42;;
77729;Laerm;68312;53.502;10.030;2023-04-24T02:02:31;48.44;43.54;56.09;;
77729;Laerm;68312;53.502;10.030;2023-04-24T02:04:57;48.03;44.00;54.91;;
77729;Laerm;68312;53.502;10.030;2023-04-24T02:07:22;47.16;42.00;56.64;;
77729;Laerm;68312;53.502;10.030;2023-04-24T02:09:48;48.70;44.53;54.82;;
77729;Laerm;68312;53.502;10.030;2023-04-24T02:12:15;49.24;44.40;57.20;;
77729;Laerm;68312;53.502;10.030;2023-04-24T02:14:41;48.83;43.53;56.55;;
77729;Laerm;68312;53.502;10.030;2023-04-24T02:17:06;50.21;45.70;55.73;;
77729;Laerm;68312;53.502;10.030;2023-04-24T02:19:32;49.38;45.39;55.23;;
77729;Laerm;68312;53.502;10.030;2023-04-24T02:21:57;50.55;46.40;55.03;;
77729;Laerm;68312;53.502;10.030;2023-04-24T02:24:23;51.09;45.58;56.72;;
77729;Laerm;68312;53.502;10.030;2023-04-24T02:26:48;48.97;44.28;54.64;;
77729;Laerm;68312;53.502;10.030;2023-04-24T02:29:13;48.99;43.20;54.83;;
77729;Laerm;68312;53.502;10.030;2023-04-24T02:31:39;48.25;43.27;54.88;;
77729;Laerm;68312;53.502;10.030;2023-04-24T02:34:04;52.09;47.56;56.96;;
77729;Laerm;68312;53.502;10.030;2023-04-24T02:36:30;51.16;47.16;57.85;;
77729;Laerm;68312;53.502;10.030;2023-04-24T02:38:55;49.24;45.34;57.09;;
77729;Laerm;68312;53.502;10.030;2023-04-24T02:41:21;50.44;46.75;56.75;;
77729;Laerm;68312;53.502;10.030;2023-04-24T02:43:46;50.59;46.29;58.85;;
77729;Laerm;68312;53.502;10.030;2023-04-24T02:46:12;49.98;45.93;54.99;;
77729;Laerm;68312;53.502;10.030;2023-04-24T02:48:37;50.84;45.51;58.23;;
77729;Laerm;68312;53.502;10.030;2023-04-24T02:51:03;51.57;47.03;56.77;;
77729;Laerm;68312;53.502;10.030;2023-04-24T02:53:29;50.59;46.53;58.10;;
77729;Laerm;68312;53.502;10.030;2023-04-24T02:55:54;51.05;46.39;57.06;;
77729;Laerm;68312;53.502;10.030;2023-04-24T02:58:20;50.56;47.16;56.52;;
77729;Laerm;68312;53.502;10.030;2023-04-24T03:00:46;51.75;47.91;56.61;;
77729;Laerm;68312;53.502;10.030;2023-04-24T03:03:11;51.80;47.91;58.39;;
77729;Laerm;68312;53.502;10.030;2023-04-24T03:05:37;51.35;47.16;61.63;;
77729;Laerm;68312;53.502;10.030;2023-04-24T03:08:02;51.31;47.90;55.35;;
77729;Laerm;68312;53.502;10.030;2023-04-24T03:10:28;51.87;48.68;62.75;;
77729;Laerm;68312;53.502;10.030;2023-04-24T03:12:53;51.46;48.00;61.46;;
77729;Laerm;68312;53.502;10.030;2023-04-24T03:15:19;52.26;47.73;60.99;;
77729;Laerm;68312;53.502;10.030;2023-04-24T03:17:44;52.75;49.19;58.61;;
77729;Laerm;68312;53.502;10.030;2023-04-24T03:20:10;52.60;48.61;63.30;;
77729;Laerm;68312;53.502;10.030;2023-04-24T03:22:35;52.75;49.28;56.80;;
77729;Laerm;68312;53.502;10.030;2023-04-24T03:25:01;52.89;48.91;59.71;;
77729;Laerm;68312;53.502;10.030;2023-04-24T03:27:27;53.59;49.97;57.72;;
77729;Laerm;68312;53.502;10.030;2023-04-24T03:29:52;52.63;48.61;58.05;;
77729;Laerm;68312;53.502;10.030;2023-04-24T03:32:18;53.39;50.05;58.81;;
77729;Laerm;68312;53.502;10.030;2023-04-24T03:34:43;54.14;48.23;71.02;;
77729;Laerm;68312;53.502;10.030;2023-04-24T03:37:09;52.74;49.14;62.64;;
77729;Laerm;68312;53.502;10.030;2023-04-24T03:39:34;52.42;49.00;63.47;;
77729;Laerm;68312;53.502;10.030;2023-04-24T03:42:00;52.37;49.39;56.60;;
77729;Laerm;68312;53.502;10.030;2023-04-24T03:44:25;53.03;49.61;58.07;;
77729;Laerm;68312;53.502;10.030;2023-04-24T03:46:50;53.92;49.41;64.66;;
77729;Laerm;68312;53.502;10.030;2023-04-24T03:49:16;53.61;50.05;73.80;;
77729;Laerm;68312;53.502;10.030;2023-04-24T03:51:41;52.59;49.03;61.29;;
77729;Laerm;68312;53.502;10.030;2023-04-24T03:54:07;53.47;49.60;59.52;;
77729;Laerm;68312;53.502;10.030;2023-04-24T03:56:32;53.89;49.95;60.88;;
77729;Laerm;68312;53.502;10.030;2023-04-24T03:58:58;54.73;49.68;60.61;;
77729;Laerm;68312;53.502;10.030;2023-04-24T04:01:23;53.43;49.66;61.42;;
77729;Laerm;68312;53.502;10.030;2023-04-24T04:03:48;53.78;48.73;66.42;;
77729;Laerm;68312;53.502;10.030;2023-04-24T04:06:14;52.52;49.55;57.15;;
77729;Laerm;68312;53.502;10.030;2023-04-24T04:08:39;53.09;49.24;61.56;;
77729;Laerm;68312;53.502;10.030;2023-04-24T04:11:05;53.73;50.20;63.26;;
77729;Laerm;68312;53.502;10.030;2023-04-24T04:13:30;53.63;49.97;58.03;;
77729;Laerm;68312;53.502;10.030;2023-04-24T04:15:56;54.01;50.12;71.27;;
77729;Laerm;68312;53.502;10.030;2023-04-24T04:18:21;54.05;49.70;60.32;;
77729;Laerm;68312;53.502;10.030;2023-04-24T04:20:47;54.03;50.45;58.26;;
77729;Laerm;68312;53.502;10.030;2023-04-24T04:23:12;54.41;50.57;64.72;;
77729;Laerm;68312;53.502;10.030;2023-04-24T04:25:38;53.89;50.18;67.00;;
77729;Laerm;68312;53.502;10.030;2023-04-24T04:28:03;55.72;51.26;77.83;;
77729;Laerm;68312;53.502;10.030;2023-04-24T04:30:29;54.17;50.17;66.13;;
77729;Laerm;68312;53.502;10.030;2023-04-24T04:32:54;56.56;50.18;74.47;;
77729;Laerm;68312;53.502;10.030;2023-04-24T04:35:19;54.33;50.12;61.40;;
77729;Laerm;68312;53.502;10.030;2023-04-24T04:37:45;56.07;51.27;75.07;;
77729;Laerm;68312;53.502;10.030;2023-04-24T04:40:11;57.89;51.60;69.07;;
77729;Laerm;68312;53.502;10.030;2023-04-24T04:42:36;54.71;50.21;67.82;;
77729;Laerm;68312;53.502;10.030;2023-04-24T04:45:01;53.95;50.03;58.40;;
77729;Laerm;68312;53.502;10.030;2023-04-24T04:47:27;52.96;48.70;61.30;;
77729;Laerm;68312;53.502;10.030;2023-04-24T04:49:53;53.78;49.15;62.09;;
77729;Laerm;68312;53.502;10.030;2023-04-24T04:52:19;53.58;49.21;59.41;;
77729;Laerm;68312;53.502;10.030;2023-04-24T04:54:44;53.40;50.14;62.22;;
77729;Laerm;68312;53.502;10.030;2023-04-24T04:57:10;53.68;50.48;57.39;;
77729;Laerm;68312;53.502;10.030;2023-04-24T04:59:36;54.32;50.32;62.30;;
77729;Laerm;68312;53.502;10.030;2023-04-24T05:02:01;55.47;51.44;65.54;;
77729;Laerm;68312;53.502;10.030;2023-04-24T05:04:27;58.92;51.58;74.87;;
77729;Laerm;68312;53.502;10.030;2023-04-24T05:06:52;55.93;50.12;74.36;;
77729;Laerm;68312;53.502;10.030;2023-04-24T05:09:18;56.88;50.67;69.79;;
77729;Laerm;68312;53.502;10.030;2023-04-24T05:11:44;64.54;49.50;84.23;;
77729;Laerm;68312;53.502;10.030;2023-04-24T05:14:09;62.76;49.96;84.12;;
77729;Laerm;68312;53.502;10.030;2023-04-24T05:16:35;58.62;49.12;81.29;;
77729;Laerm;68312;53.502;10.030;2023-04-24T05:19:00;55.98;49.98;80.26;;
77729;Laerm;68312;53.502;10.030;2023-04-24T05:21:26;57.60;49.80;78.03;;
77729;Laerm;68312;53.502;10.030;2023-04-24T05:23:51;54.12;49.88;70.48;;
77729;Laerm;68312;53.502;10.030;2023-04-24T05:26:17;56.09;49.37;67.73;;
77729;Laerm;68312;53.502;10.030;2023-04-24T05:28:42;54.20;49.61;70.93;;
77729;Laerm;68312;53.502;10.030;2023-04-24T05:31:07;58.63;53.00;70.53;;
77729;Laerm;68312;53.502;10.030;2023-04-24T05:33:33;55.58;52.31;66.99;;
77729;Laerm;68312;53.502;10.030;2023-04-24T05:35:58;57.75;53.63;70.73;;
77729;Laerm;68312;53.502;10.030;2023-04-24T05:38:24;58.10;52.77;67.35;;
77729;Laerm;68312;53.502;10.030;2023-04-24T05:40:49;59.74;52.89;67.95;;
77729;Laerm;68312;53.502;10.030;2023-04-24T05:43:15;60.03;55.38;66.34;;
77729;Laerm;68312;53.502;10.030;2023-04-24T05:45:40;59.71;53.72;70.57;;
77729;Laerm;68312;53.502;10.030;2023-04-24T05:48:05;59.83;52.84;70.97;;
77729;Laerm;68312;53.502;10.030;2023-04-24T05:50:32;56.14;52.49;65.65;;
77729;Laerm;68312;53.502;10.030;2023-04-24T05:52:57;58.05;52.79;67.00;;
77729;Laerm;68312;53.502;10.030;2023-04-24T05:55:24;60.42;53.34;67.93;;
77729;Laerm;68312;53.502;10.030;2023-04-24T05:57:50;59.65;56.14;70.16;;
77729;Laerm;68312;53.502;10.030;2023-04-24T06:00:16;60.21;54.76;69.48;;
77729;Laerm;68312;53.502;10.030;2023-04-24T06:02:41;58.69;53.21;66.36;;
77729;Laerm;68312;53.502;10.030;2023-04-24T06:05:08;60.86;56.88;82.47;;
77729;Laerm;68312;53.502;10.030;2023-04-24T06:07:33;60.48;52.62;72.39;;
77729;Laerm;68312;53.502;10.030;2023-04-24T06:09:59;58.86;52.73;75.60;;
77729;Laerm;68312;53.502;10.030;2023-04-24T06:12:25;55.13;51.84;70.35;;
77729;Laerm;68312;53.502;10.030;2023-04-24T06:14:51;55.10;51.47;65.32;;
77729;Laerm;68312;53.502;10.030;2023-04-24T06:17:16;55.17;51.60;61.96;;
77729;Laerm;68312;53.502;10.030;2023-04-24T06:19:42;55.89;51.82;64.01;;
77729;Laerm;68312;53.502;10.030;2023-04-24T06:22:07;54.31;50.71;62.99;;
77729;Laerm;68312;53.502;10.030;2023-04-24T06:24:34;58.02;49.35;72.11;;
77729;Laerm;68312;53.502;10.030;2023-04-24T06:27:00;52.78;46.65;63.81;;
77729;Laerm;68312;53.502;10.030;2023-04-24T06:29:25;52.19;46.65;63.43;;
77729;Laerm;68312;53.502;10.030;2023-04-24T06:31:50;51.98;48.00;63.08;;
77729;Laerm;68312;53.502;10.030;2023-04-24T06:34:16;51.51;47.48;60.14;;
77729;Laerm;68312;53.502;10.030;2023-04-24T06:36:41;50.43;46.67;66.10;;
77729;Laerm;68312;53.502;10.030;2023-04-24T06:39:07;51.41;47.24;64.54;;
77729;Laerm;68312;53.502;10.030;2023-04-24T06:41:32;51.09;47.10;56.29;;
77729;Laerm;68312;53.502;10.030;2023-04-24T06:43:58;52.03;47.62;61.70;;
77729;Laerm;68312;53.502;10.030;2023-04-24T06:46:23;51.89;47.50;58.70;;
77729;Laerm;68312;53.502;10.030;2023-04-24T06:48:49;52.50;47.79;71.76;;
77729;Laerm;68312;53.502;10.030;2023-04-24T06:51:15;57.61;48.54;74.75;;
77729;Laerm;68312;53.502;10.030;2023-04-24T06:53:40;69.85;48.68;83.12;;
77729;Laerm;68312;53.502;10.030;2023-04-24T06:56:06;55.86;48.96;80.34;;
77729;Laerm;68312;53.502;10.030;2023-04-24T06:58:32;56.03;48.99;71.82;;
77729;Laerm;68312;53.502;10.030;2023-04-24T07:00:57;53.59;48.03;77.51;;
77729;Laerm;68312;53.502;10.030;2023-04-24T07:03:22;53.73;47.48;65.42;;
77729;Laerm;68312;53.502;10.030;2023-04-24T07:05:48;52.97;49.37;66.53;;
77729;Laerm;68312;53.502;10.030;2023-04-24T07:08:14;53.24;48.78;71.76;;
77729;Laerm;68312;53.502;10.030;2023-04-24T07:10:39;52.24;47.82;65.59;;
77729;Laerm;68312;53.502;10.030;2023-04-24T07:13:05;53.17;48.24;62.51;;
77729;Laerm;68312;53.502;10.030;2023-04-24T07:15:30;56.02;52.38;67.65;;
77729;Laerm;68312;53.502;10.030;2023-04-24T07:17:55;57.09;52.15;64.71;;
77729;Laerm;68312;53.502;10.030;2023-04-24T07:20:21;56.10;51.64;69.19;;
77729;Laerm;68312;53.502;10.030;2023-04-24T07:22:47;56.14;51.46;61.57;;
77729;Laerm;68312;53.502;10.030;2023-04-24T07:25:12;59.54;51.80;68.55;;
77729;Laerm;68312;53.502;10.030;2023-04-24T07:27:37;57.49;52.16;63.32;;
77729;Laerm;68312;53.502;10.030;2023-04-24T07:30:04;55.20;51.89;62.86;;
77729;Laerm;68312;53.502;10.030;2023-04-24T07:32:30;56.45;52.06;68.06;;
77729;Laerm;68312;53.502;10.030;2023-04-24T07:34:56;56.57;51.97;66.46;;
77729;Laerm;68312;53.502;10.030;2023-04-24T07:37:22;54.87;51.00;72.71;;
77729;Laerm;68312;53.502;10.030;2023-04-24T07:39:48;56.23;51.92;72.23;;
77729;Laerm;68312;53.502;10.030;2023-04-24T07:42:13;59.29;52.31;69.91;;
77729;Laerm;68312;53.502;10.030;2023-04-24T07:44:39;59.23;52.19;75.14;;
77729;Laerm;68312;53.502;10.030;2023-04-24T07:47:04;58.54;53.41;69.37;;
77729;Laerm;68312;53.502;10.030;2023-04-24T07:49:30;55.52;51.71;64.34;;
77729;Laerm;68312;53.502;10.030;2023-04-24T07:51:55;54.84;51.82;64.22;;
77729;Laerm;68312;53.502;10.030;2023-04-24T07:54:21;54.99;51.70;69.55;;
77729;Laerm;68312;53.502;10.030;2023-04-24T07:56:48;58.06;52.01;72.91;;
77729;Laerm;68312;53.502;10.030;2023-04-24T07:59:13;60.31;54.56;71.72;;
77729;Laerm;68312;53.502;10.030;2023-04-24T08:01:38;61.03;52.32;76.83;;
77729;Laerm;68312;53.502;10.030;2023-04-24T08:04:04;60.65;56.60;78.06;;
77729;Laerm;68312;53.502;10.030;2023-04-24T08:06:29;60.10;54.07;72.24;;
77729;Laerm;68312;53.502;10.030;2023-04-24T08:08:56;58.44;51.98;72.89;;
77729;Laerm;68312;53.502;10.030;2023-04-24T08:11:22;60.55;53.09;68.40;;
77729;Laerm;68312;53.502;10.030;2023-04-24T08:13:47;60.12;53.72;73.77;;
77729;Laerm;68312;53.502;10.030;2023-04-24T08:16:12;60.22;53.48;79.03;;
77729;Laerm;68312;53.502;10.030;2023-04-24T08:18:38;60.38;51.80;74.18;;
77729;Laerm;68312;53.502;10.030;2023-04-24T08:21:04;60.33;52.86;76.73;;
77729;Laerm;68312;53.502;10.030;2023-04-24T08:23:30;57.68;49.21;74.27;;
77729;Laerm;68312;53.502;10.030;2023-04-24T08:25:55;56.01;49.21;70.71;;
77729;Laerm;68312;53.502;10.030;2023-04-24T08:28:21;53.66;49.92;66.48;;
77729;Laerm;68312;53.502;10.030;2023-04-24T08:30:47;52.80;48.92;62.32;;
77729;Laerm;68312;53.502;10.030;2023-04-24T08:33:14;53.64;47.80;66.88;;
77729;Laerm;68312;53.502;10.030;2023-04-24T08:35:40;54.57;48.81;72.73;;
77729;Laerm;68312;53.502;10.030;2023-04-24T08:38:05;56.29;49.21;71.30;;
77729;Laerm;68312;53.502;10.030;2023-04-24T08:40:34;55.86;46.32;72.06;;
77729;Laerm;68312;53.502;10.030;2023-04-24T08:43:00;51.49;48.29;58.43;;
77729;Laerm;68312;53.502;10.030;2023-04-24T08:45:26;52.00;47.06;62.44;;
77729;Laerm;68312;53.502;10.030;2023-04-24T08:47:55;51.76;47.58;63.53;;
77729;Laerm;68312;53.502;10.030;2023-04-24T08:50:23;51.11;46.71;60.45;;
77729;Laerm;68312;53.502;10.030;2023-04-24T08:52:52;52.78;47.17;63.03;;
77729;Laerm;68312;53.502;10.030;2023-04-24T08:55:17;51.72;47.55;64.40;;
77729;Laerm;68312;53.502;10.030;2023-04-24T08:57:45;52.79;47.45;63.24;;
77729;Laerm;68312;53.502;10.030;2023-04-24T09:00:12;53.24;49.39;62.77;;
77729;Laerm;68312;53.502;10.030;2023-04-24T09:02:42;52.10;46.40;64.12;;
77729;Laerm;68312;53.502;10.030;2023-04-24T09:05:08;52.31;47.66;66.72;;
77729;Laerm;68312;53.502;10.030;2023-04-24T09:07:39;53.68;48.76;72.73;;
77729;Laerm;68312;53.502;10.030;2023-04-24T09:10:07;51.87;47.17;65.88;;
77729;Laerm;68312;53.502;10.030;2023-04-24T09:12:34;52.10;47.66;58.77;;
77729;Laerm;68312;53.502;10.030;2023-04-24T09:15:02;52.17;47.44;59.96;;
77729;Laerm;68312;53.502;10.030;2023-04-24T09:17:28;52.61;47.87;66.54;;
77729;Laerm;68312;53.502;10.030;2023-04-24T09:19:53;52.27;48.59;59.63;;
77729;Laerm;68312;53.502;10.030;2023-04-24T09:22:20;53.85;48.13;65.72;;
77729;Laerm;68312;53.502;10.030;2023-04-24T09:24:45;52.62;49.19;58.15;;
77729;Laerm;68312;53.502;10.030;2023-04-24T09:27:11;52.38;47.19;62.27;;
77729;Laerm;68312;53.502;10.030;2023-04-24T09:29:37;54.80;47.71;63.45;;
77729;Laerm;68312;53.502;10.030;2023-04-24T09:32:20;51.97;47.60;59.24;;
77729;Laerm;68312;53.502;10.030;2023-04-24T09:34:47;50.00;45.88;61.28;;
77729;Laerm;68312;53.502;10.030;2023-04-24T09:37:28;54.33;48.42;63.33;;
77729;Laerm;68312;53.502;10.030;2023-04-24T09:40:21;52.79;48.40;62.97;;
77729;Laerm;68312;53.502;10.030;2023-04-24T09:42:57;53.51;48.54;64.84;;
77729;Laerm;68312;53.502;10.030;2023-04-24T09:45:34;52.79;48.59;68.41;;
77729;Laerm;68312;53.502;10.030;2023-04-24T09:48:01;50.42;46.41;59.11;;
77729;Laerm;68312;53.502;10.030;2023-04-24T09:50:26;51.23;48.18;62.37;;
77729;Laerm;68312;53.502;10.030;2023-04-24T09:53:03;52.88;48.52;63.21;;
77729;Laerm;68312;53.502;10.030;2023-04-24T09:55:28;52.87;48.81;62.90;;
77729;Laerm;68312;53.502;10.030;2023-04-24T09:58:00;51.26;47.04;58.95;;
77729;Laerm;68312;53.502;10.030;2023-04-24T10:00:32;55.22;47.16;68.80;;
77729;Laerm;68312;53.502;10.030;2023-04-24T10:03:05;53.08;47.48;66.61;;
77729;Laerm;68312;53.502;10.030;2023-04-24T10:05:36;51.94;46.98;68.11;;
77729;Laerm;68312;53.502;10.030;2023-04-24T10:08:09;52.27;47.12;70.89;;
77729;Laerm;68312;53.502;10.030;2023-04-24T10:10:44;51.91;47.88;62.31;;
77729;Laerm;68312;53.502;10.030;2023-04-24T10:13:12;51.35;47.73;65.95;;
77729;Laerm;68312;53.502;10.030;2023-04-24T10:15:40;52.14;47.28;64.37;;
77729;Laerm;68312;53.502;10.030;2023-04-24T10:18:08;51.56;47.06;62.94;;
77729;Laerm;68312;53.502;10.030;2023-04-24T10:20:37;57.80;47.62;70.65;;
77729;Laerm;68312;53.502;10.030;2023-04-24T10:23:04;52.09;46.87;61.74;;
77729;Laerm;68312;53.502;10.030;2023-04-24T10:25:33;52.79;46.30;67.97;;
77729;Laerm;68312;53.502;10.030;2023-04-24T10:28:01;51.94;47.13;62.82;;
77729;Laerm;68312;53.502;10.030;2023-04-24T10:30:34;51.20;46.98;60.69;;
77729;Laerm;68312;53.502;10.030;2023-04-24T10:33:05;51.82;47.54;62.76;;
77729;Laerm;68312;53.502;10.030;2023-04-24T10:35:42;50.48;47.42;58.67;;
77729;Laerm;68312;53.502;10.030;2023-04-24T10:38:15;51.29;47.43;64.29;;
77729;Laerm;68312;53.502;10.030;2023-04-24T10:40:42;50.63;47.19;69.48;;
77729;Laerm;68312;53.502;10.030;2023-04-24T10:43:09;50.46;46.75;61.63;;
77729;Laerm;68312;53.502;10.030;2023-04-24T10:45:34;50.98;47.15;64.92;;
77729;Laerm;68312;53.502;10.030;2023-04-24T10:48:18;51.40;47.53;65.88;;
77729;Laerm;68312;53.502;10.030;2023-04-24T10:50:53;52.15;46.07;80.98;;
77729;Laerm;68312;53.502;10.030;2023-04-24T10:53:23;49.37;44.82;54.76;;
77729;Laerm;68312;53.502;10.030;2023-04-24T10:56:05;50.17;44.16;62.70;;
77729;Laerm;68312;53.502;10.030;2023-04-24T10:58:50;49.90;44.63;58.58;;
77729;Laerm;68312;53.502;10.030;2023-04-24T11:01:31;50.69;45.71;60.35;;
77729;Laerm;68312;53.502;10.030;2023-04-24T11:04:03;53.13;46.83;67.16;;
77729;Laerm;68312;53.502;10.030;2023-04-24T11:06:36;51.33;47.10;59.18;;
77729;Laerm;68312;53.502;10.030;2023-04-24T11:09:10;52.30;47.80;61.45;;
77729;Laerm;68312;53.502;10.030;2023-04-24T11:11:38;52.06;46.62;62.73;;
77729;Laerm;68312;53.502;10.030;2023-04-24T11:14:07;50.94;47.16;64.69;;
77729;Laerm;68312;53.502;10.030;2023-04-24T11:16:43;51.17;46.77;59.74;;
77729;Laerm;68312;53.502;10.030;2023-04-24T11:24:30;51.19;47.15;58.30;;
77729;Laerm;68312;53.502;10.030;2023-04-24T11:27:19;51.60;47.37;63.87;;
77729;Laerm;68312;53.502;10.030;2023-04-24T11:30:02;50.88;47.17;63.94;;
77729;Laerm;68312;53.502;10.030;2023-04-24T11:35:23;51.43;46.80;59.50;;
77729;Laerm;68312;53.502;10.030;2023-04-24T11:37:53;51.91;47.98;65.79;;
77729;Laerm;68312;53.502;10.030;2023-04-24T11:40:21;51.49;47.08;70.15;;
77729;Laerm;68312;53.502;10.030;2023-04-24T11:42:50;51.34;46.75;71.90;;
77729;Laerm;68312;53.502;10.030;2023-04-24T11:45:30;52.37;47.12;69.43;;
77729;Laerm;68312;53.502;10.030;2023-04-24T11:47:56;51.53;47.14;61.18;;
77729;Laerm;68312;53.502;10.030;2023-04-24T11:50:25;57.20;48.02;78.30;;
77729;Laerm;68312;53.502;10.030;2023-04-24T11:52:51;54.22;49.21;65.30;;
77729;Laerm;68312;53.502;10.030;2023-04-24T11:57:56;54.58;49.01;66.40;;
77729;Laerm;68312;53.502;10.030;2023-04-24T12:00:32;56.07;47.80;65.82;;
77729;Laerm;68312;53.502;10.030;2023-04-24T12:03:11;59.22;48.51;80.66;;
77729;Laerm;68312;53.502;10.030;2023-04-24T12:05:38;55.76;47.49;77.93;;
77729;Laerm;68312;53.502;10.030;2023-04-24T12:08:05;56.27;49.64;71.08;;
77729;Laerm;68312;53.502;10.030;2023-04-24T12:10:33;54.13;49.91;67.56;;
77729;Laerm;68312;53.502;10.030;2023-04-24T12:12:59;52.90;47.49;66.50;;
77729;Laerm;68312;53.502;10.030;2023-04-24T12:15:26;53.66;47.12;67.72;;
77729;Laerm;68312;53.502;10.030;2023-04-24T12:17:54;55.82;49.69;70.87;;
77729;Laerm;68312;53.502;10.030;2023-04-24T12:20:32;52.92;48.62;64.29;;
77729;Laerm;68312;53.502;10.030;2023-04-24T12:23:00;52.16;48.25;57.39;;
77729;Laerm;68312;53.502;10.030;2023-04-24T12:25:32;52.27;48.65;65.86;;
77729;Laerm;68312;53.502;10.030;2023-04-24T12:30:34;51.67;48.31;64.62;;
77729;Laerm;68312;53.502;10.030;2023-04-24T12:33:02;52.14;47.48;66.74;;
77729;Laerm;68312;53.502;10.030;2023-04-24T12:35:31;51.34;47.72;62.26;;
77729;Laerm;68312;53.502;10.030;2023-04-24T12:38:13;73.01;48.44;101.74;;
77729;Laerm;68312;53.502;10.030;2023-04-24T12:40:42;52.06;47.30;64.96;;
77729;Laerm;68312;53.502;10.030;2023-04-24T12:43:17;54.75;48.47;71.54;;
77729;Laerm;68312;53.502;10.030;2023-04-24T12:45:43;55.73;48.88;71.86;;
77729;Laerm;68312;53.502;10.030;2023-04-24T12:48:09;54.22;48.74;67.97;;
77729;Laerm;68312;53.502;10.030;2023-04-24T12:50:34;54.85;50.16;71.22;;
77729;Laerm;68312;53.502;10.030;2023-04-24T12:53:00;57.73;52.36;72.64;;
77729;Laerm;68312;53.502;10.030;2023-04-24T12:55:25;61.08;54.23;72.69;;
77729;Laerm;68312;53.502;10.030;2023-04-24T12:57:51;60.02;54.26;71.50;;
77729;Laerm;68312;53.502;10.030;2023-04-24T13:00:17;60.78;53.77;67.15;;
77729;Laerm;68312;53.502;10.030;2023-04-24T13:02:42;60.54;52.56;71.21;;
77729;Laerm;68312;53.502;10.030;2023-04-24T13:05:08;59.98;51.33;74.46;;
77729;Laerm;68312;53.502;10.030;2023-04-24T13:07:34;60.77;54.56;75.59;;
77729;Laerm;68312;53.502;10.030;2023-04-24T13:09:59;61.17;57.40;71.93;;
77729;Laerm;68312;53.502;10.030;2023-04-24T13:12:25;61.50;54.56;70.77;;
77729;Laerm;68312;53.502;10.030;2023-04-24T13:14:51;60.52;50.98;68.75;;
77729;Laerm;68312;53.502;10.030;2023-04-24T13:17:16;60.88;51.94;70.58;;
77729;Laerm;68312;53.502;10.030;2023-04-24T13:19:44;60.52;52.70;77.54;;
77729;Laerm;68312;53.502;10.030;2023-04-24T13:22:12;60.93;53.11;72.07;;
77729;Laerm;68312;53.502;10.030;2023-04-24T13:24:39;56.95;50.86;71.23;;
77729;Laerm;68312;53.502;10.030;2023-04-24T13:27:04;53.68;47.40;67.84;;
77729;Laerm;68312;53.502;10.030;2023-04-24T13:29:30;51.26;47.91;65.67;;
77729;Laerm;68312;53.502;10.030;2023-04-24T13:31:56;51.32;47.61;64.20;;
77729;Laerm;68312;53.502;10.030;2023-04-24T13:34:24;50.66;47.12;63.35;;
77729;Laerm;68312;53.502;10.030;2023-04-24T13:36:53;49.34;45.65;55.95;;
77729;Laerm;68312;53.502;10.030;2023-04-24T13:39:20;51.90;45.88;65.70;;
77729;Laerm;68312;53.502;10.030;2023-04-24T13:41:45;52.27;44.87;69.11;;
77729;Laerm;68312;53.502;10.030;2023-04-24T13:44:11;56.95;46.39;77.13;;